sensor_id;sensor_type;location;lat;lon;timestamp;temperature;humidity
20650;DHT22;10484;48.736;9.332;2022-09-21T00:00:41;9.20;1.00
20650;DHT22;10484;48.736;9.332;2022-09-21T00:03:08;9.20;1.00
20650;DHT22;10484;48.736;9.332;2022-09-21T00:05:35;9.20;1.00
20650;DHT22;10484;48.736;9.332;2022-09-21T00:08:02;9.10;1.00
20650;DHT22;10484;48.736;9.332;2022-09-21T00:10:28;9.10;1.00
20650;DHT22;10484;48.736;9.332;2022-09-21T00:12:54;9.10;1.00
20650;DHT22;10484;48.736;9.332;2022-09-21T00:15:20;9.10;1.00
20650;DHT22;10484;48.736;9.332;2022-09-21T00:17:47;9.00;1.00
20650;DHT22;10484;48.736;9.332;2022-09-21T00:20:14;9.00;1.00
20650;DHT22;10484;48.736;9.332;2022-09-21T00:22:40;9.00;1.00
20650;DHT22;10484;48.736;9.332;2022-09-21T00:25:07;8.90;1.00
20650;DHT22;10484;48.736;9.332;2022-09-21T00:27:33;8.90;1.00
20650;DHT22;10484;48.736;9.332;2022-09-21T00:29:59;8.90;1.00
20650;DHT22;10484;48.736;9.332;2022-09-21T00:32:27;8.90;1.00
20650;DHT22;10484;48.736;9.332;2022-09-21T00:34:56;8.90;1.00
20650;DHT22;10484;48.736;9.332;2022-09-21T00:37:23;8.80;1.00
20650;DHT22;10484;48.736;9.332;2022-09-21T00:39:49;8.80;1.00
20650;DHT22;10484;48.736;9.332;2022-09-21T00:42:23;8.80;1.00
20650;DHT22;10484;48.736;9.332;2022-09-21T00:44:49;8.70;1.00
20650;DHT22;10484;48.736;9.332;2022-09-21T00:47:27;8.70;1.00
20650;DHT22;10484;48.736;9.332;2022-09-21T00:49:55;8.70;1.00
20650;DHT22;10484;48.736;9.332;2022-09-21T00:52:24;8.70;1.00
20650;DHT22;10484;48.736;9.332;2022-09-21T00:55:01;8.60;1.00
20650;DHT22;10484;48.736;9.332;2022-09-21T00:57:29;8.60;1.00
20650;DHT22;10484;48.736;9.332;2022-09-21T00:59:57;8.60;1.00
20650;DHT22;10484;48.736;9.332;2022-09-21T01:02:24;8.60;1.00
20650;DHT22;10484;48.736;9.332;2022-09-21T01:04:52;8.50;1.00
20650;DHT22;10484;48.736;9.332;2022-09-21T01:07:21;8.50;1.00
20650;DHT22;10484;48.736;9.332;2022-09-21T01:09:52;8.50;1.00
20650;DHT22;10484;48.736;9.332;2022-09-21T01:31:59;8.20;1.00
20650;DHT22;10484;48.736;9.332;2022-09-21T01:34:58;8.20;1.00
20650;DHT22;10484;48.736;9.332;2022-09-21T01:37:30;8.20;1.00
20650;DHT22;10484;48.736;9.332;2022-09-21T01:40:00;8.10;1.00
20650;DHT22;10484;48.736;9.332;2022-09-21T01:42:30;8.10;1.00
20650;DHT22;10484;48.736;9.332;2022-09-21T01:44:58;8.10;1.00
20650;DHT22;10484;48.736;9.332;2022-09-21T01:47:28;8.10;1.00
20650;DHT22;10484;48.736;9.332;2022-09-21T01:49:58;8.00;1.00
20650;DHT22;10484;48.736;9.332;2022-09-21T01:52:43;8.00;1.00
20650;DHT22;10484;48.736;9.332;2022-09-21T01:55:16;8.00;1.00
20650;DHT22;10484;48.736;9.332;2022-09-21T02:00:15;7.90;1.00
20650;DHT22;10484;48.736;9.332;2022-09-21T02:05:12;7.90;1.00
20650;DHT22;10484;48.736;9.332;2022-09-21T02:07:41;7.90;1.00
20650;DHT22;10484;48.736;9.332;2022-09-21T02:10:10;7.90;1.00
20650;DHT22;10484;48.736;9.332;2022-09-21T02:12:38;7.80;1.00
20650;DHT22;10484;48.736;9.332;2022-09-21T02:15:05;7.80;1.00
20650;DHT22;10484;48.736;9.332;2022-09-21T02:17:46;7.80;1.00
20650;DHT22;10484;48.736;9.332;2022-09-21T02:23:26;7.80;1.00
20650;DHT22;10484;48.736;9.332;2022-09-21T02:31:25;7.70;1.00
20650;DHT22;10484;48.736;9.332;2022-09-21T02:34:28;7.70;1.00
20650;DHT22;10484;48.736;9.332;2022-09-21T02:37:06;7.60;1.00
20650;DHT22;10484;48.736;9.332;2022-09-21T02:39:42;7.60;1.00
20650;DHT22;10484;48.736;9.332;2022-09-21T02:42:15;7.60;1.00
20650;DHT22;10484;48.736;9.332;2022-09-21T02:44:49;7.50;1.00
20650;DHT22;10484;48.736;9.332;2022-09-21T02:47:56;7.50;1.00
20650;DHT22;10484;48.736;9.332;2022-09-21T02:50:37;7.50;1.00
20650;DHT22;10484;48.736;9.332;2022-09-21T02:53:06;7.50;1.00
20650;DHT22;10484;48.736;9.332;2022-09-21T02:55:35;7.40;1.00
20650;DHT22;10484;48.736;9.332;2022-09-21T02:58:05;7.40;1.00
20650;DHT22;10484;48.736;9.332;2022-09-21T03:00:34;7.40;1.00
20650;DHT22;10484;48.736;9.332;2022-09-21T03:03:13;7.40;1.00
20650;DHT22;10484;48.736;9.332;2022-09-21T03:05:42;7.40;1.00
20650;DHT22;10484;48.736;9.332;2022-09-21T03:08:08;7.40;1.00
20650;DHT22;10484;48.736;9.332;2022-09-21T03:10:33;7.30;1.00
20650;DHT22;10484;48.736;9.332;2022-09-21T03:13:04;7.30;1.00
20650;DHT22;10484;48.736;9.332;2022-09-21T03:15:30;7.30;1.00
20650;DHT22;10484;48.736;9.332;2022-09-21T03:17:55;7.30;1.00
20650;DHT22;10484;48.736;9.332;2022-09-21T03:20:21;7.20;1.00
20650;DHT22;10484;48.736;9.332;2022-09-21T03:22:47;7.20;1.00
20650;DHT22;10484;48.736;9.332;2022-09-21T03:25:12;7.20;1.00
20650;DHT22;10484;48.736;9.332;2022-09-21T03:27:38;7.10;1.00
20650;DHT22;10484;48.736;9.332;2022-09-21T03:30:05;7.10;1.00
20650;DHT22;10484;48.736;9.332;2022-09-21T03:32:31;7.10;1.00
20650;DHT22;10484;48.736;9.332;2022-09-21T03:34:57;7.10;1.00
20650;DHT22;10484;48.736;9.332;2022-09-21T03:37:22;7.00;1.00
20650;DHT22;10484;48.736;9.332;2022-09-21T03:39:48;7.00;1.00
20650;DHT22;10484;48.736;9.332;2022-09-21T03:42:13;7.00;1.00
20650;DHT22;10484;48.736;9.332;2022-09-21T03:44:39;7.00;1.00
20650;DHT22;10484;48.736;9.332;2022-09-21T03:47:05;7.00;1.00
20650;DHT22;10484;48.736;9.332;2022-09-21T03:49:32;6.90;1.00
20650;DHT22;10484;48.736;9.332;2022-09-21T03:51:59;6.90;1.00
20650;DHT22;10484;48.736;9.332;2022-09-21T03:54:25;6.90;1.00
20650;DHT22;10484;48.736;9.332;2022-09-21T03:56:51;6.90;1.00
20650;DHT22;10484;48.736;9.332;2022-09-21T03:59:16;6.80;1.00
20650;DHT22;10484;48.736;9.332;2022-09-21T04:01:42;6.80;1.00
20650;DHT22;10484;48.736;9.332;2022-09-21T04:04:09;6.80;1.00
20650;DHT22;10484;48.736;9.332;2022-09-21T04:06:35;6.80;1.00
20650;DHT22;10484;48.736;9.332;2022-09-21T04:09:01;6.70;1.00
20650;DHT22;10484;48.736;9.332;2022-09-21T04:11:26;6.70;1.00
20650;DHT22;10484;48.736;9.332;2022-09-21T04:13:53;6.70;1.00
20650;DHT22;10484;48.736;9.332;2022-09-21T04:16:22;6.70;1.00
20650;DHT22;10484;48.736;9.332;2022-09-21T04:18:49;6.60;1.00
20650;DHT22;10484;48.736;9.332;2022-09-21T04:21:16;6.60;1.00
20650;DHT22;10484;48.736;9.332;2022-09-21T04:23:41;6.60;1.00
20650;DHT22;10484;48.736;9.332;2022-09-21T04:26:22;6.60;1.00
20650;DHT22;10484;48.736;9.332;2022-09-21T04:28:48;6.50;1.00
20650;DHT22;10484;48.736;9.332;2022-09-21T04:31:14;6.50;1.00
20650;DHT22;10484;48.736;9.332;2022-09-21T04:33:40;6.50;1.00
20650;DHT22;10484;48.736;9.332;2022-09-21T04:36:06;6.50;1.00
20650;DHT22;10484;48.736;9.332;2022-09-21T04:38:31;6.50;1.00
20650;DHT22;10484;48.736;9.332;2022-09-21T04:40:57;6.40;1.00
20650;DHT22;10484;48.736;9.332;2022-09-21T04:43:24;6.40;1.00
20650;DHT22;10484;48.736;9.332;2022-09-21T04:45:50;6.40;1.00
20650;DHT22;10484;48.736;9.332;2022-09-21T04:48:15;6.40;1.00
20650;DHT22;10484;48.736;9.332;2022-09-21T04:50:42;6.40;1.00
20650;DHT22;10484;48.736;9.332;2022-09-21T04:53:09;6.40;1.00
20650;DHT22;10484;48.736;9.332;2022-09-21T04:55:34;6.40;1.00
20650;DHT22;10484;48.736;9.332;2022-09-21T04:58:00;6.30;1.00
20650;DHT22;10484;48.736;9.332;2022-09-21T05:00:26;6.30;1.00
20650;DHT22;10484;48.736;9.332;2022-09-21T05:02:51;6.30;1.00
20650;DHT22;10484;48.736;9.332;2022-09-21T05:05:17;6.30;1.00
20650;DHT22;10484;48.736;9.332;2022-09-21T05:07:42;6.30;1.00
20650;DHT22;10484;48.736;9.332;2022-09-21T05:10:09;6.20;1.00
20650;DHT22;10484;48.736;9.332;2022-09-21T05:12:36;6.20;1.00
20650;DHT22;10484;48.736;9.332;2022-09-21T05:15:03;6.20;1.00
20650;DHT22;10484;48.736;9.332;2022-09-21T05:17:28;6.20;1.00
20650;DHT22;10484;48.736;9.332;2022-09-21T05:19:54;6.20;1.00
20650;DHT22;10484;48.736;9.332;2022-09-21T05:22:20;6.20;1.00
20650;DHT22;10484;48.736;9.332;2022-09-21T05:24:46;6.20;1.00
20650;DHT22;10484;48.736;9.332;2022-09-21T05:27:12;6.10;1.00
20650;DHT22;10484;48.736;9.332;2022-09-21T05:29:39;6.10;1.00
20650;DHT22;10484;48.736;9.332;2022-09-21T05:32:26;6.10;1.00
20650;DHT22;10484;48.736;9.332;2022-09-21T05:35:26;6.10;1.00
20650;DHT22;10484;48.736;9.332;2022-09-21T05:40:34;6.10;1.00
20650;DHT22;10484;48.736;9.332;2022-09-21T05:43:00;6.10;1.00
20650;DHT22;10484;48.736;9.332;2022-09-21T05:45:26;6.10;1.00
20650;DHT22;10484;48.736;9.332;2022-09-21T05:47:58;6.10;1.00
20650;DHT22;10484;48.736;9.332;2022-09-21T05:55:55;6.10;1.00
20650;DHT22;10484;48.736;9.332;2022-09-21T06:03:41;6.10;1.00
20650;DHT22;10484;48.736;9.332;2022-09-21T06:06:07;6.10;1.00
20650;DHT22;10484;48.736;9.332;2022-09-21T06:08:34;6.10;1.00
20650;DHT22;10484;48.736;9.332;2022-09-21T06:10:59;6.10;1.00
20650;DHT22;10484;48.736;9.332;2022-09-21T06:13:25;6.10;1.00
20650;DHT22;10484;48.736;9.332;2022-09-21T06:15:51;6.20;1.00
20650;DHT22;10484;48.736;9.332;2022-09-21T06:18:18;6.20;1.00
20650;DHT22;10484;48.736;9.332;2022-09-21T06:20:44;6.10;1.00
20650;DHT22;10484;48.736;9.332;2022-09-21T06:23:12;6.20;1.00
20650;DHT22;10484;48.736;9.332;2022-09-21T06:25:38;6.20;1.00
20650;DHT22;10484;48.736;9.332;2022-09-21T06:28:06;6.20;1.00
20650;DHT22;10484;48.736;9.332;2022-09-21T06:30:32;6.20;1.00
20650;DHT22;10484;48.736;9.332;2022-09-21T06:33:04;6.30;1.00
20650;DHT22;10484;48.736;9.332;2022-09-21T06:35:31;6.30;1.00
20650;DHT22;10484;48.736;9.332;2022-09-21T06:38:02;6.20;1.00
20650;DHT22;10484;48.736;9.332;2022-09-21T06:40:30;6.30;1.00
20650;DHT22;10484;48.736;9.332;2022-09-21T06:43:00;6.30;1.00
20650;DHT22;10484;48.736;9.332;2022-09-21T06:45:27;6.30;1.00
20650;DHT22;10484;48.736;9.332;2022-09-21T06:47:53;6.30;1.00
20650;DHT22;10484;48.736;9.332;2022-09-21T06:50:19;6.30;1.00
20650;DHT22;10484;48.736;9.332;2022-09-21T06:52:46;6.40;1.00
20650;DHT22;10484;48.736;9.332;2022-09-21T06:55:12;6.40;1.00
20650;DHT22;10484;48.736;9.332;2022-09-21T06:57:38;6.30;1.00
20650;DHT22;10484;48.736;9.332;2022-09-21T07:00:05;6.40;1.00
20650;DHT22;10484;48.736;9.332;2022-09-21T07:02:31;6.40;1.00
20650;DHT22;10484;48.736;9.332;2022-09-21T07:04:57;6.40;1.00
20650;DHT22;10484;48.736;9.332;2022-09-21T07:07:24;6.50;1.00
20650;DHT22;10484;48.736;9.332;2022-09-21T07:09:49;6.50;1.00
20650;DHT22;10484;48.736;9.332;2022-09-21T07:12:16;6.50;1.00
20650;DHT22;10484;48.736;9.332;2022-09-21T07:14:42;6.50;1.00
20650;DHT22;10484;48.736;9.332;2022-09-21T07:17:11;6.50;1.00
20650;DHT22;10484;48.736;9.332;2022-09-21T07:19:38;6.60;1.00
20650;DHT22;10484;48.736;9.332;2022-09-21T07:22:04;6.60;1.00
20650;DHT22;10484;48.736;9.332;2022-09-21T07:24:30;6.60;1.00
20650;DHT22;10484;48.736;9.332;2022-09-21T07:26:56;6.60;1.00
20650;DHT22;10484;48.736;9.332;2022-09-21T07:29:22;6.60;1.00
20650;DHT22;10484;48.736;9.332;2022-09-21T07:31:47;6.70;1.00
20650;DHT22;10484;48.736;9.332;2022-09-21T07:34:13;6.70;1.00
20650;DHT22;10484;48.736;9.332;2022-09-21T07:36:39;6.80;1.00
20650;DHT22;10484;48.736;9.332;2022-09-21T07:39:05;6.80;1.00
20650;DHT22;10484;48.736;9.332;2022-09-21T07:41:33;6.80;1.00
20650;DHT22;10484;48.736;9.332;2022-09-21T07:43:59;6.90;1.00
20650;DHT22;10484;48.736;9.332;2022-09-21T07:46:25;7.00;1.00
20650;DHT22;10484;48.736;9.332;2022-09-21T07:48:52;7.10;1.00
20650;DHT22;10484;48.736;9.332;2022-09-21T07:51:18;7.10;1.00
20650;DHT22;10484;48.736;9.332;2022-09-21T07:53:44;7.30;1.00
20650;DHT22;10484;48.736;9.332;2022-09-21T07:56:12;7.40;1.00
20650;DHT22;10484;48.736;9.332;2022-09-21T07:58:38;7.50;1.00
20650;DHT22;10484;48.736;9.332;2022-09-21T08:01:23;7.60;1.00
20650;DHT22;10484;48.736;9.332;2022-09-21T08:03:51;7.70;1.00
20650;DHT22;10484;48.736;9.332;2022-09-21T08:06:17;7.80;1.00
20650;DHT22;10484;48.736;9.332;2022-09-21T08:08:44;7.90;1.00
20650;DHT22;10484;48.736;9.332;2022-09-21T08:11:16;7.90;1.00
20650;DHT22;10484;48.736;9.332;2022-09-21T08:13:43;8.00;1.00
20650;DHT22;10484;48.736;9.332;2022-09-21T08:16:08;8.10;1.00
20650;DHT22;10484;48.736;9.332;2022-09-21T08:18:39;8.30;1.00
20650;DHT22;10484;48.736;9.332;2022-09-21T08:21:05;8.30;1.00
20650;DHT22;10484;48.736;9.332;2022-09-21T08:23:31;8.50;1.00
20650;DHT22;10484;48.736;9.332;2022-09-21T08:26:01;8.50;1.00
20650;DHT22;10484;48.736;9.332;2022-09-21T08:28:28;8.70;1.00
20650;DHT22;10484;48.736;9.332;2022-09-21T08:30:59;8.80;1.00
20650;DHT22;10484;48.736;9.332;2022-09-21T08:33:25;8.90;1.00
20650;DHT22;10484;48.736;9.332;2022-09-21T08:35:53;9.00;1.00
20650;DHT22;10484;48.736;9.332;2022-09-21T08:38:19;9.20;1.00
20650;DHT22;10484;48.736;9.332;2022-09-21T08:40:45;9.30;1.00
20650;DHT22;10484;48.736;9.332;2022-09-21T08:43:14;9.40;1.00
20650;DHT22;10484;48.736;9.332;2022-09-21T08:45:43;9.50;1.00
20650;DHT22;10484;48.736;9.332;2022-09-21T08:48:19;9.70;1.00
20650;DHT22;10484;48.736;9.332;2022-09-21T08:50:52;9.80;1.00
20650;DHT22;10484;48.736;9.332;2022-09-21T08:53:23;10.00;1.00
20650;DHT22;10484;48.736;9.332;2022-09-21T08:55:50;10.10;1.00
20650;DHT22;10484;48.736;9.332;2022-09-21T08:58:27;10.30;1.00
20650;DHT22;10484;48.736;9.332;2022-09-21T09:20:31;11.70;1.00
20650;DHT22;10484;48.736;9.332;2022-09-21T09:23:05;11.90;1.00
20650;DHT22;10484;48.736;9.332;2022-09-21T09:25:37;12.10;1.00
20650;DHT22;10484;48.736;9.332;2022-09-21T09:28:16;12.20;1.00
20650;DHT22;10484;48.736;9.332;2022-09-21T09:30:44;12.30;1.00
20650;DHT22;10484;48.736;9.332;2022-09-21T09:33:21;12.50;1.00
20650;DHT22;10484;48.736;9.332;2022-09-21T09:36:02;12.60;1.00
20650;DHT22;10484;48.736;9.332;2022-09-21T09:38:56;12.70;1.00
20650;DHT22;10484;48.736;9.332;2022-09-21T09:47:35;13.20;1.00
20650;DHT22;10484;48.736;9.332;2022-09-21T09:50:27;13.40;1.00
20650;DHT22;10484;48.736;9.332;2022-09-21T09:53:01;13.50;1.00
20650;DHT22;10484;48.736;9.332;2022-09-21T09:55:38;13.60;1.00
20650;DHT22;10484;48.736;9.332;2022-09-21T09:58:22;13.70;1.00
20650;DHT22;10484;48.736;9.332;2022-09-21T10:00:52;13.80;1.00
20650;DHT22;10484;48.736;9.332;2022-09-21T10:03:23;13.90;1.00
20650;DHT22;10484;48.736;9.332;2022-09-21T10:05:50;14.00;1.00
20650;DHT22;10484;48.736;9.332;2022-09-21T10:11:01;14.10;1.00
20650;DHT22;10484;48.736;9.332;2022-09-21T10:13:28;14.20;1.00
20650;DHT22;10484;48.736;9.332;2022-09-21T10:16:13;14.30;1.00
20650;DHT22;10484;48.736;9.332;2022-09-21T10:21:41;14.20;1.00
20650;DHT22;10484;48.736;9.332;2022-09-21T10:24:29;14.20;1.00
20650;DHT22;10484;48.736;9.332;2022-09-21T10:27:13;14.30;1.00
20650;DHT22;10484;48.736;9.332;2022-09-21T10:29:43;14.30;1.00
20650;DHT22;10484;48.736;9.332;2022-09-21T10:32:23;14.30;1.00
20650;DHT22;10484;48.736;9.332;2022-09-21T10:37:38;14.30;1.00
20650;DHT22;10484;48.736;9.332;2022-09-21T10:40:26;14.40;1.00
20650;DHT22;10484;48.736;9.332;2022-09-21T10:42:55;14.40;1.00
20650;DHT22;10484;48.736;9.332;2022-09-21T10:45:25;14.40;1.00
20650;DHT22;10484;48.736;9.332;2022-09-21T10:50:40;14.50;1.00
20650;DHT22;10484;48.736;9.332;2022-09-21T10:55:44;14.50;1.00
20650;DHT22;10484;48.736;9.332;2022-09-21T10:58:12;14.60;1.00
20650;DHT22;10484;48.736;9.332;2022-09-21T11:00:44;14.70;1.00
20650;DHT22;10484;48.736;9.332;2022-09-21T11:06:14;14.90;1.00
20650;DHT22;10484;48.736;9.332;2022-09-21T11:08:58;15.00;1.00
20650;DHT22;10484;48.736;9.332;2022-09-21T11:17:02;15.40;1.00
20650;DHT22;10484;48.736;9.332;2022-09-21T11:19:43;15.40;1.00
20650;DHT22;10484;48.736;9.332;2022-09-21T11:22:41;15.40;1.00
20650;DHT22;10484;48.736;9.332;2022-09-21T11:28:36;15.40;1.00
20650;DHT22;10484;48.736;9.332;2022-09-21T11:39:52;15.30;1.00
20650;DHT22;10484;48.736;9.332;2022-09-21T11:45:00;15.40;1.00
20650;DHT22;10484;48.736;9.332;2022-09-21T11:50:26;15.60;1.00
20650;DHT22;10484;48.736;9.332;2022-09-21T11:53:09;15.60;1.00
20650;DHT22;10484;48.736;9.332;2022-09-21T11:58:51;15.70;1.00
20650;DHT22;10484;48.736;9.332;2022-09-21T12:04:14;15.70;1.00
20650;DHT22;10484;48.736;9.332;2022-09-21T12:06:49;15.80;1.00
20650;DHT22;10484;48.736;9.332;2022-09-21T12:12:52;15.90;1.00
20650;DHT22;10484;48.736;9.332;2022-09-21T12:15:22;15.80;1.00
20650;DHT22;10484;48.736;9.332;2022-09-21T12:18:18;15.80;1.00
20650;DHT22;10484;48.736;9.332;2022-09-21T12:20:49;15.80;1.00
20650;DHT22;10484;48.736;9.332;2022-09-21T12:26:02;15.80;1.00
20650;DHT22;10484;48.736;9.332;2022-09-21T12:28:50;15.70;1.00
20650;DHT22;10484;48.736;9.332;2022-09-21T12:34:17;15.80;1.00
20650;DHT22;10484;48.736;9.332;2022-09-21T12:37:07;15.80;1.00
20650;DHT22;10484;48.736;9.332;2022-09-21T12:44:46;15.90;1.00
20650;DHT22;10484;48.736;9.332;2022-09-21T12:47:26;15.90;1.00
20650;DHT22;10484;48.736;9.332;2022-09-21T12:49:58;15.90;1.00
20650;DHT22;10484;48.736;9.332;2022-09-21T12:52:26;15.90;1.00
20650;DHT22;10484;48.736;9.332;2022-09-21T12:55:04;15.90;1.00
20650;DHT22;10484;48.736;9.332;2022-09-21T13:00:11;16.00;1.00
20650;DHT22;10484;48.736;9.332;2022-09-21T13:08:10;15.90;1.00
20650;DHT22;10484;48.736;9.332;2022-09-21T13:10:59;16.00;1.00
20650;DHT22;10484;48.736;9.332;2022-09-21T13:13:36;15.90;1.00
20650;DHT22;10484;48.736;9.332;2022-09-21T13:16:04;15.80;1.00
20650;DHT22;10484;48.736;9.332;2022-09-21T13:18:35;15.90;1.00
20650;DHT22;10484;48.736;9.332;2022-09-21T13:21:17;15.90;1.00
20650;DHT22;10484;48.736;9.332;2022-09-21T13:24:21;16.00;1.00
20650;DHT22;10484;48.736;9.332;2022-09-21T13:26:49;16.00;1.00
20650;DHT22;10484;48.736;9.332;2022-09-21T13:34:30;16.30;1.00
20650;DHT22;10484;48.736;9.332;2022-09-21T13:37:26;16.40;1.00
20650;DHT22;10484;48.736;9.332;2022-09-21T13:45:05;16.50;1.00
20650;DHT22;10484;48.736;9.332;2022-09-21T13:47:53;16.50;1.00
20650;DHT22;10484;48.736;9.332;2022-09-21T13:53:01;16.60;1.00
20650;DHT22;10484;48.736;9.332;2022-09-21T13:58:06;16.70;1.00
20650;DHT22;10484;48.736;9.332;2022-09-21T14:00:49;16.80;1.00
20650;DHT22;10484;48.736;9.332;2022-09-21T14:05:47;16.80;1.00
20650;DHT22;10484;48.736;9.332;2022-09-21T14:10:47;16.70;1.00
20650;DHT22;10484;48.736;9.332;2022-09-21T14:13:28;16.70;1.00
20650;DHT22;10484;48.736;9.332;2022-09-21T14:18:53;16.60;1.00
20650;DHT22;10484;48.736;9.332;2022-09-21T14:21:20;16.60;1.00
20650;DHT22;10484;48.736;9.332;2022-09-21T14:31:53;16.60;1.00
20650;DHT22;10484;48.736;9.332;2022-09-21T14:34:25;16.60;1.00
20650;DHT22;10484;48.736;9.332;2022-09-21T14:36:54;16.60;1.00
20650;DHT22;10484;48.736;9.332;2022-09-21T14:39:27;16.70;1.00
20650;DHT22;10484;48.736;9.332;2022-09-21T14:41:56;16.70;1.00
20650;DHT22;10484;48.736;9.332;2022-09-21T14:44:27;16.70;1.00
20650;DHT22;10484;48.736;9.332;2022-09-21T14:47:03;16.70;1.00
20650;DHT22;10484;48.736;9.332;2022-09-21T14:49:36;16.60;1.00
20650;DHT22;10484;48.736;9.332;2022-09-21T14:52:23;16.50;1.00
20650;DHT22;10484;48.736;9.332;2022-09-21T15:02:40;16.60;1.00
20650;DHT22;10484;48.736;9.332;2022-09-21T15:05:39;16.60;1.00
20650;DHT22;10484;48.736;9.332;2022-09-21T15:11:25;16.60;1.00
20650;DHT22;10484;48.736;9.332;2022-09-21T15:18:49;16.50;1.00
20650;DHT22;10484;48.736;9.332;2022-09-21T15:21:26;16.50;1.00
20650;DHT22;10484;48.736;9.332;2022-09-21T15:23:54;16.40;1.00
20650;DHT22;10484;48.736;9.332;2022-09-21T15:26:28;16.30;1.00
20650;DHT22;10484;48.736;9.332;2022-09-21T15:29:01;16.30;1.00
20650;DHT22;10484;48.736;9.332;2022-09-21T15:31:36;16.30;1.00
20650;DHT22;10484;48.736;9.332;2022-09-21T15:34:06;16.30;1.00
20650;DHT22;10484;48.736;9.332;2022-09-21T15:36:37;16.30;1.00
20650;DHT22;10484;48.736;9.332;2022-09-21T15:39:03;16.30;1.00
20650;DHT22;10484;48.736;9.332;2022-09-21T15:44:27;16.10;1.00
20650;DHT22;10484;48.736;9.332;2022-09-21T15:46:56;16.00;1.00
20650;DHT22;10484;48.736;9.332;2022-09-21T15:49:25;16.00;1.00
20650;DHT22;10484;48.736;9.332;2022-09-21T15:52:07;16.00;1.00
20650;DHT22;10484;48.736;9.332;2022-09-21T15:57:40;15.90;1.00
20650;DHT22;10484;48.736;9.332;2022-09-21T16:02:40;15.90;1.00
20650;DHT22;10484;48.736;9.332;2022-09-21T16:05:11;16.00;1.00
20650;DHT22;10484;48.736;9.332;2022-09-21T16:07:39;15.90;1.00
20650;DHT22;10484;48.736;9.332;2022-09-21T16:13:02;16.00;1.00
20650;DHT22;10484;48.736;9.332;2022-09-21T16:16:02;15.90;1.00
20650;DHT22;10484;48.736;9.332;2022-09-21T16:18:38;15.90;1.00
20650;DHT22;10484;48.736;9.332;2022-09-21T16:21:30;15.90;1.00
20650;DHT22;10484;48.736;9.332;2022-09-21T16:24:15;15.80;1.00
20650;DHT22;10484;48.736;9.332;2022-09-21T16:26:54;15.80;1.00
20650;DHT22;10484;48.736;9.332;2022-09-21T16:29:23;15.70;1.00
20650;DHT22;10484;48.736;9.332;2022-09-21T16:31:51;15.60;1.00
20650;DHT22;10484;48.736;9.332;2022-09-21T16:34:38;15.60;1.00
20650;DHT22;10484;48.736;9.332;2022-09-21T16:39:57;15.60;1.00
20650;DHT22;10484;48.736;9.332;2022-09-21T16:42:24;15.50;1.00
20650;DHT22;10484;48.736;9.332;2022-09-21T16:44:52;15.60;1.00
20650;DHT22;10484;48.736;9.332;2022-09-21T16:47:26;15.60;1.00
20650;DHT22;10484;48.736;9.332;2022-09-21T16:49:57;15.60;1.00
20650;DHT22;10484;48.736;9.332;2022-09-21T16:52:27;15.60;1.00
20650;DHT22;10484;48.736;9.332;2022-09-21T16:54:54;15.50;1.00
20650;DHT22;10484;48.736;9.332;2022-09-21T16:57:21;15.50;1.00
20650;DHT22;10484;48.736;9.332;2022-09-21T16:59:47;15.50;1.00
20650;DHT22;10484;48.736;9.332;2022-09-21T17:02:14;15.50;1.00
20650;DHT22;10484;48.736;9.332;2022-09-21T17:04:40;15.50;1.00
20650;DHT22;10484;48.736;9.332;2022-09-21T17:07:05;15.50;1.00
20650;DHT22;10484;48.736;9.332;2022-09-21T17:09:40;15.50;1.00
20650;DHT22;10484;48.736;9.332;2022-09-21T17:12:10;15.50;1.00
20650;DHT22;10484;48.736;9.332;2022-09-21T17:14:36;15.50;1.00
20650;DHT22;10484;48.736;9.332;2022-09-21T17:17:16;15.40;1.00
20650;DHT22;10484;48.736;9.332;2022-09-21T17:19:43;15.40;1.00
20650;DHT22;10484;48.736;9.332;2022-09-21T17:22:11;15.40;1.00
20650;DHT22;10484;48.736;9.332;2022-09-21T17:24:42;15.30;1.00
20650;DHT22;10484;48.736;9.332;2022-09-21T17:27:12;15.30;1.00
20650;DHT22;10484;48.736;9.332;2022-09-21T17:29:45;15.20;1.00
20650;DHT22;10484;48.736;9.332;2022-09-21T17:32:18;15.20;1.00
20650;DHT22;10484;48.736;9.332;2022-09-21T17:34:45;15.10;1.00
20650;DHT22;10484;48.736;9.332;2022-09-21T17:37:11;15.10;1.00
20650;DHT22;10484;48.736;9.332;2022-09-21T17:39:37;15.00;1.00
20650;DHT22;10484;48.736;9.332;2022-09-21T17:42:16;15.00;1.00
20650;DHT22;10484;48.736;9.332;2022-09-21T17:47:28;14.80;1.00
20650;DHT22;10484;48.736;9.332;2022-09-21T17:50:17;14.80;1.00
20650;DHT22;10484;48.736;9.332;2022-09-21T17:52:44;14.70;1.00
20650;DHT22;10484;48.736;9.332;2022-09-21T17:55:29;14.60;1.00
20650;DHT22;10484;48.736;9.332;2022-09-21T18:03:26;14.50;1.00
20650;DHT22;10484;48.736;9.332;2022-09-21T18:05:53;14.40;1.00
20650;DHT22;10484;48.736;9.332;2022-09-21T18:08:27;14.40;1.00
20650;DHT22;10484;48.736;9.332;2022-09-21T18:19:28;14.10;1.00
20650;DHT22;10484;48.736;9.332;2022-09-21T18:22:23;14.10;1.00
20650;DHT22;10484;48.736;9.332;2022-09-21T18:24:54;14.00;1.00
20650;DHT22;10484;48.736;9.332;2022-09-21T18:27:20;14.00;1.00
20650;DHT22;10484;48.736;9.332;2022-09-21T18:29:47;13.90;1.00
20650;DHT22;10484;48.736;9.332;2022-09-21T18:32:27;13.80;1.00
20650;DHT22;10484;48.736;9.332;2022-09-21T18:46:03;13.50;1.00
20650;DHT22;10484;48.736;9.332;2022-09-21T18:51:24;13.40;1.00
20650;DHT22;10484;48.736;9.332;2022-09-21T18:53:53;13.40;1.00
20650;DHT22;10484;48.736;9.332;2022-09-21T18:56:24;13.40;1.00
20650;DHT22;10484;48.736;9.332;2022-09-21T18:58:50;13.40;1.00
20650;DHT22;10484;48.736;9.332;2022-09-21T19:01:17;13.30;1.00
20650;DHT22;10484;48.736;9.332;2022-09-21T19:03:46;13.30;1.00
20650;DHT22;10484;48.736;9.332;2022-09-21T19:08:44;13.20;1.00
20650;DHT22;10484;48.736;9.332;2022-09-21T19:19:38;13.00;1.00
20650;DHT22;10484;48.736;9.332;2022-09-21T19:22:39;12.90;1.00
20650;DHT22;10484;48.736;9.332;2022-09-21T19:27:37;12.80;1.00
20650;DHT22;10484;48.736;9.332;2022-09-21T19:30:14;12.80;1.00
20650;DHT22;10484;48.736;9.332;2022-09-21T19:32:45;12.70;1.00
20650;DHT22;10484;48.736;9.332;2022-09-21T19:35:29;12.60;1.00
20650;DHT22;10484;48.736;9.332;2022-09-21T19:38:00;12.60;1.00
20650;DHT22;10484;48.736;9.332;2022-09-21T19:40:31;12.50;1.00
20650;DHT22;10484;48.736;9.332;2022-09-21T19:48:15;12.40;1.00
20650;DHT22;10484;48.736;9.332;2022-09-21T19:50:52;12.40;1.00
20650;DHT22;10484;48.736;9.332;2022-09-21T19:53:19;12.30;1.00
20650;DHT22;10484;48.736;9.332;2022-09-21T19:56:08;12.30;1.00
20650;DHT22;10484;48.736;9.332;2022-09-21T19:58:53;12.20;1.00
20650;DHT22;10484;48.736;9.332;2022-09-21T20:01:40;12.20;1.00
20650;DHT22;10484;48.736;9.332;2022-09-21T20:04:12;12.10;1.00
20650;DHT22;10484;48.736;9.332;2022-09-21T20:06:44;12.10;1.00
20650;DHT22;10484;48.736;9.332;2022-09-21T20:11:49;12.00;1.00
20650;DHT22;10484;48.736;9.332;2022-09-21T20:14:38;12.00;1.00
20650;DHT22;10484;48.736;9.332;2022-09-21T20:17:09;11.90;1.00
20650;DHT22;10484;48.736;9.332;2022-09-21T20:19:47;11.80;1.00
20650;DHT22;10484;48.736;9.332;2022-09-21T20:22:32;11.80;1.00
20650;DHT22;10484;48.736;9.332;2022-09-21T20:27:36;11.70;1.00
20650;DHT22;10484;48.736;9.332;2022-09-21T20:30:09;11.70;1.00
20650;DHT22;10484;48.736;9.332;2022-09-21T20:32:36;11.60;1.00
20650;DHT22;10484;48.736;9.332;2022-09-21T20:35:20;11.60;1.00
20650;DHT22;10484;48.736;9.332;2022-09-21T20:37:46;11.50;1.00